sensor_id;sensor_type;location;lat;lon;timestamp;P1;durP1;ratioP1;P2;durP2;ratioP2
79130;SDS011;72396;45.194;9.142;2024-02-23T00:00:29;25.65;;;13.50;;
79130;SDS011;72396;45.194;9.142;2024-02-23T00:02:54;24.17;;;12.88;;
79130;SDS011;72396;45.194;9.142;2024-02-23T00:05:22;22.80;;;13.38;;
79130;SDS011;72396;45.194;9.142;2024-02-23T00:07:47;21.38;;;12.27;;
79130;SDS011;72396;45.194;9.142;2024-02-23T00:10:12;21.58;;;12.82;;
79130;SDS011;72396;45.194;9.142;2024-02-23T00:12:38;24.00;;;12.30;;
79130;SDS011;72396;45.194;9.142;2024-02-23T00:15:03;23.90;;;12.15;;
79130;SDS011;72396;45.194;9.142;2024-02-23T00:17:29;26.55;;;12.82;;
79130;SDS011;72396;45.194;9.142;2024-02-23T00:19:54;24.85;;;13.18;;
79130;SDS011;72396;45.194;9.142;2024-02-23T00:22:20;21.13;;;11.80;;
79130;SDS011;72396;45.194;9.142;2024-02-23T00:24:45;25.10;;;12.82;;
79130;SDS011;72396;45.194;9.142;2024-02-23T00:27:10;25.05;;;11.88;;
79130;SDS011;72396;45.194;9.142;2024-02-23T00:29:36;21.65;;;12.13;;
79130;SDS011;72396;45.194;9.142;2024-02-23T00:32:02;22.13;;;12.98;;
79130;SDS011;72396;45.194;9.142;2024-02-23T00:34:27;20.25;;;12.30;;
79130;SDS011;72396;45.194;9.142;2024-02-23T00:36:55;23.23;;;12.45;;
79130;SDS011;72396;45.194;9.142;2024-02-23T00:39:20;24.08;;;12.70;;
79130;SDS011;72396;45.194;9.142;2024-02-23T00:41:46;21.58;;;11.40;;
79130;SDS011;72396;45.194;9.142;2024-02-23T00:44:11;21.48;;;11.77;;
79130;SDS011;72396;45.194;9.142;2024-02-23T00:46:37;18.75;;;11.95;;
79130;SDS011;72396;45.194;9.142;2024-02-23T00:49:02;22.80;;;12.15;;
79130;SDS011;72396;45.194;9.142;2024-02-23T00:51:28;21.60;;;12.02;;
79130;SDS011;72396;45.194;9.142;2024-02-23T00:53:53;26.17;;;12.32;;
79130;SDS011;72396;45.194;9.142;2024-02-23T00:56:18;24.92;;;13.00;;
79130;SDS011;72396;45.194;9.142;2024-02-23T00:58:44;23.05;;;12.48;;
79130;SDS011;72396;45.194;9.142;2024-02-23T01:01:09;21.60;;;11.93;;
79130;SDS011;72396;45.194;9.142;2024-02-23T01:03:34;24.73;;;13.10;;
79130;SDS011;72396;45.194;9.142;2024-02-23T01:06:00;22.52;;;12.75;;
79130;SDS011;72396;45.194;9.142;2024-02-23T01:08:25;27.08;;;14.57;;
79130;SDS011;72396;45.194;9.142;2024-02-23T01:10:51;23.33;;;13.25;;
79130;SDS011;72396;45.194;9.142;2024-02-23T01:13:16;25.52;;;13.32;;
79130;SDS011;72396;45.194;9.142;2024-02-23T01:15:41;23.25;;;13.80;;
79130;SDS011;72396;45.194;9.142;2024-02-23T01:18:07;23.25;;;13.15;;
79130;SDS011;72396;45.194;9.142;2024-02-23T01:20:33;27.13;;;13.73;;
79130;SDS011;72396;45.194;9.142;2024-02-23T01:22:58;22.38;;;12.43;;
79130;SDS011;72396;45.194;9.142;2024-02-23T01:25:24;23.45;;;12.52;;
79130;SDS011;72396;45.194;9.142;2024-02-23T01:27:49;22.23;;;13.02;;
79130;SDS011;72396;45.194;9.142;2024-02-23T01:30:15;22.20;;;12.10;;
79130;SDS011;72396;45.194;9.142;2024-02-23T01:32:40;19.60;;;11.65;;
79130;SDS011;72396;45.194;9.142;2024-02-23T01:35:06;17.83;;;11.70;;
79130;SDS011;72396;45.194;9.142;2024-02-23T01:37:32;21.67;;;12.25;;
79130;SDS011;72396;45.194;9.142;2024-02-23T01:39:58;18.95;;;10.85;;
79130;SDS011;72396;45.194;9.142;2024-02-23T01:42:24;20.58;;;11.65;;
79130;SDS011;72396;45.194;9.142;2024-02-23T01:44:51;20.95;;;11.48;;
79130;SDS011;72396;45.194;9.142;2024-02-23T01:47:16;19.20;;;11.07;;
79130;SDS011;72396;45.194;9.142;2024-02-23T01:49:42;20.63;;;11.55;;
79130;SDS011;72396;45.194;9.142;2024-02-23T01:52:07;19.30;;;9.73;;
79130;SDS011;72396;45.194;9.142;2024-02-23T01:54:33;18.88;;;11.23;;
79130;SDS011;72396;45.194;9.142;2024-02-23T01:56:59;19.33;;;9.85;;
79130;SDS011;72396;45.194;9.142;2024-02-23T01:59:25;20.42;;;10.68;;
79130;SDS011;72396;45.194;9.142;2024-02-23T02:01:51;19.13;;;10.70;;
79130;SDS011;72396;45.194;9.142;2024-02-23T02:04:17;20.50;;;11.45;;
79130;SDS011;72396;45.194;9.142;2024-02-23T02:06:44;19.20;;;10.57;;
79130;SDS011;72396;45.194;9.142;2024-02-23T02:09:11;21.45;;;10.88;;
79130;SDS011;72396;45.194;9.142;2024-02-23T02:11:44;18.70;;;10.43;;
79130;SDS011;72396;45.194;9.142;2024-02-23T02:14:11;19.15;;;10.45;;
79130;SDS011;72396;45.194;9.142;2024-02-23T02:16:36;18.95;;;10.07;;
79130;SDS011;72396;45.194;9.142;2024-02-23T02:19:01;20.02;;;11.07;;
79130;SDS011;72396;45.194;9.142;2024-02-23T02:21:27;21.00;;;10.52;;
79130;SDS011;72396;45.194;9.142;2024-02-23T02:23:53;18.65;;;10.02;;
79130;SDS011;72396;45.194;9.142;2024-02-23T02:26:18;16.60;;;9.15;;
79130;SDS011;72396;45.194;9.142;2024-02-23T02:28:44;18.38;;;9.75;;
79130;SDS011;72396;45.194;9.142;2024-02-23T02:31:09;14.00;;;8.85;;
79130;SDS011;72396;45.194;9.142;2024-02-23T02:33:35;19.65;;;9.90;;
79130;SDS011;72396;45.194;9.142;2024-02-23T02:36:00;14.68;;;8.88;;
79130;SDS011;72396;45.194;9.142;2024-02-23T02:38:25;19.25;;;9.75;;
79130;SDS011;72396;45.194;9.142;2024-02-23T02:40:51;16.65;;;9.80;;
79130;SDS011;72396;45.194;9.142;2024-02-23T02:43:16;17.45;;;10.52;;
79130;SDS011;72396;45.194;9.142;2024-02-23T02:45:42;16.05;;;8.55;;
79130;SDS011;72396;45.194;9.142;2024-02-23T02:48:07;16.15;;;8.77;;
79130;SDS011;72396;45.194;9.142;2024-02-23T02:50:32;16.60;;;8.93;;
79130;SDS011;72396;45.194;9.142;2024-02-23T02:52:58;15.32;;;9.05;;
79130;SDS011;72396;45.194;9.142;2024-02-23T02:55:23;15.35;;;9.18;;
79130;SDS011;72396;45.194;9.142;2024-02-23T02:57:48;17.65;;;9.23;;
79130;SDS011;72396;45.194;9.142;2024-02-23T03:00:14;20.25;;;9.57;;
79130;SDS011;72396;45.194;9.142;2024-02-23T03:02:39;18.38;;;8.82;;
79130;SDS011;72396;45.194;9.142;2024-02-23T03:05:05;16.58;;;8.20;;
79130;SDS011;72396;45.194;9.142;2024-02-23T03:07:30;14.63;;;8.25;;
79130;SDS011;72396;45.194;9.142;2024-02-23T03:09:55;14.63;;;8.88;;
79130;SDS011;72396;45.194;9.142;2024-02-23T03:12:21;17.10;;;8.65;;
79130;SDS011;72396;45.194;9.142;2024-02-23T03:14:46;14.25;;;7.78;;
79130;SDS011;72396;45.194;9.142;2024-02-23T03:17:12;17.40;;;9.13;;
79130;SDS011;72396;45.194;9.142;2024-02-23T03:19:37;16.42;;;8.45;;
79130;SDS011;72396;45.194;9.142;2024-02-23T03:22:03;13.25;;;7.50;;
79130;SDS011;72396;45.194;9.142;2024-02-23T03:24:29;14.63;;;8.38;;
79130;SDS011;72396;45.194;9.142;2024-02-23T03:26:55;15.45;;;8.23;;
79130;SDS011;72396;45.194;9.142;2024-02-23T03:29:21;12.80;;;7.53;;
79130;SDS011;72396;45.194;9.142;2024-02-23T03:31:49;13.75;;;7.03;;
79130;SDS011;72396;45.194;9.142;2024-02-23T03:34:15;11.25;;;6.45;;
79130;SDS011;72396;45.194;9.142;2024-02-23T03:36:40;11.18;;;7.07;;
79130;SDS011;72396;45.194;9.142;2024-02-23T03:39:05;10.30;;;6.63;;
79130;SDS011;72396;45.194;9.142;2024-02-23T03:41:31;9.73;;;5.70;;
79130;SDS011;72396;45.194;9.142;2024-02-23T03:43:57;11.68;;;6.35;;
79130;SDS011;72396;45.194;9.142;2024-02-23T03:46:22;11.48;;;6.18;;
79130;SDS011;72396;45.194;9.142;2024-02-23T03:48:47;10.70;;;5.53;;
79130;SDS011;72396;45.194;9.142;2024-02-23T03:51:13;9.75;;;6.05;;
79130;SDS011;72396;45.194;9.142;2024-02-23T03:53:38;8.25;;;5.03;;
79130;SDS011;72396;45.194;9.142;2024-02-23T03:56:04;10.70;;;5.18;;
79130;SDS011;72396;45.194;9.142;2024-02-23T03:58:29;9.77;;;5.05;;
79130;SDS011;72396;45.194;9.142;2024-02-23T04:00:55;9.63;;;5.88;;
79130;SDS011;72396;45.194;9.142;2024-02-23T04:03:20;9.27;;;5.20;;
79130;SDS011;72396;45.194;9.142;2024-02-23T04:05:46;7.20;;;4.65;;
79130;SDS011;72396;45.194;9.142;2024-02-23T04:08:11;7.32;;;4.70;;
79130;SDS011;72396;45.194;9.142;2024-02-23T04:10:36;6.13;;;4.32;;
79130;SDS011;72396;45.194;9.142;2024-02-23T04:13:02;7.18;;;4.25;;
79130;SDS011;72396;45.194;9.142;2024-02-23T04:15:27;7.35;;;4.45;;
79130;SDS011;72396;45.194;9.142;2024-02-23T04:17:53;5.60;;;3.70;;
79130;SDS011;72396;45.194;9.142;2024-02-23T04:20:18;4.97;;;3.38;;
79130;SDS011;72396;45.194;9.142;2024-02-23T04:22:44;5.15;;;3.10;;
79130;SDS011;72396;45.194;9.142;2024-02-23T04:25:09;4.80;;;2.55;;
79130;SDS011;72396;45.194;9.142;2024-02-23T04:27:34;4.78;;;2.80;;
79130;SDS011;72396;45.194;9.142;2024-02-23T04:30:00;5.97;;;3.35;;
79130;SDS011;72396;45.194;9.142;2024-02-23T04:32:25;5.57;;;3.20;;
79130;SDS011;72396;45.194;9.142;2024-02-23T04:34:51;5.50;;;3.40;;
79130;SDS011;72396;45.194;9.142;2024-02-23T04:37:16;6.70;;;3.50;;
79130;SDS011;72396;45.194;9.142;2024-02-23T04:39:43;5.57;;;3.17;;
79130;SDS011;72396;45.194;9.142;2024-02-23T04:42:08;6.15;;;3.13;;
79130;SDS011;72396;45.194;9.142;2024-02-23T04:44:34;5.32;;;3.40;;
79130;SDS011;72396;45.194;9.142;2024-02-23T04:47:00;6.25;;;3.60;;
79130;SDS011;72396;45.194;9.142;2024-02-23T04:49:26;6.88;;;3.92;;
79130;SDS011;72396;45.194;9.142;2024-02-23T04:51:51;6.13;;;3.78;;
79130;SDS011;72396;45.194;9.142;2024-02-23T04:54:16;7.20;;;3.90;;
79130;SDS011;72396;45.194;9.142;2024-02-23T04:56:42;8.57;;;4.28;;
79130;SDS011;72396;45.194;9.142;2024-02-23T04:59:07;7.30;;;4.25;;
79130;SDS011;72396;45.194;9.142;2024-02-23T05:01:36;6.22;;;3.97;;
79130;SDS011;72396;45.194;9.142;2024-02-23T05:04:02;9.45;;;4.10;;
79130;SDS011;72396;45.194;9.142;2024-02-23T05:06:28;6.72;;;4.32;;
79130;SDS011;72396;45.194;9.142;2024-02-23T05:08:54;6.15;;;4.03;;
79130;SDS011;72396;45.194;9.142;2024-02-23T05:11:19;7.65;;;4.20;;
79130;SDS011;72396;45.194;9.142;2024-02-23T05:13:45;7.45;;;4.60;;
79130;SDS011;72396;45.194;9.142;2024-02-23T05:16:10;7.95;;;4.30;;
79130;SDS011;72396;45.194;9.142;2024-02-23T05:18:38;8.25;;;4.22;;
79130;SDS011;72396;45.194;9.142;2024-02-23T05:21:03;6.38;;;4.28;;
79130;SDS011;72396;45.194;9.142;2024-02-23T05:23:29;6.72;;;4.10;;
79130;SDS011;72396;45.194;9.142;2024-02-23T05:25:54;7.55;;;4.25;;
79130;SDS011;72396;45.194;9.142;2024-02-23T05:28:19;7.85;;;4.15;;
79130;SDS011;72396;45.194;9.142;2024-02-23T05:30:45;6.78;;;4.45;;
79130;SDS011;72396;45.194;9.142;2024-02-23T05:33:10;7.80;;;4.32;;
79130;SDS011;72396;45.194;9.142;2024-02-23T05:35:36;8.35;;;5.18;;
79130;SDS011;72396;45.194;9.142;2024-02-23T05:38:01;6.90;;;4.53;;
79130;SDS011;72396;45.194;9.142;2024-02-23T05:40:27;6.88;;;4.25;;
79130;SDS011;72396;45.194;9.142;2024-02-23T05:42:52;8.00;;;5.03;;
79130;SDS011;72396;45.194;9.142;2024-02-23T05:45:18;7.93;;;5.00;;
79130;SDS011;72396;45.194;9.142;2024-02-23T05:47:43;9.30;;;5.47;;
79130;SDS011;72396;45.194;9.142;2024-02-23T05:50:08;9.43;;;5.50;;
79130;SDS011;72396;45.194;9.142;2024-02-23T05:52:34;8.55;;;5.30;;
79130;SDS011;72396;45.194;9.142;2024-02-23T05:55:01;8.90;;;5.07;;
79130;SDS011;72396;45.194;9.142;2024-02-23T05:57:27;8.48;;;5.40;;
79130;SDS011;72396;45.194;9.142;2024-02-23T05:59:52;8.95;;;5.35;;
79130;SDS011;72396;45.194;9.142;2024-02-23T06:02:18;7.75;;;5.22;;
79130;SDS011;72396;45.194;9.142;2024-02-23T06:04:43;10.45;;;5.47;;
79130;SDS011;72396;45.194;9.142;2024-02-23T06:07:09;9.60;;;5.68;;
79130;SDS011;72396;45.194;9.142;2024-02-23T06:09:34;10.05;;;6.05;;
79130;SDS011;72396;45.194;9.142;2024-02-23T06:12:00;11.07;;;6.43;;
79130;SDS011;72396;45.194;9.142;2024-02-23T06:14:25;10.20;;;6.28;;
79130;SDS011;72396;45.194;9.142;2024-02-23T06:16:50;10.07;;;6.35;;
79130;SDS011;72396;45.194;9.142;2024-02-23T06:19:16;9.07;;;5.90;;
79130;SDS011;72396;45.194;9.142;2024-02-23T06:21:41;9.02;;;5.80;;
79130;SDS011;72396;45.194;9.142;2024-02-23T06:24:07;10.43;;;6.43;;
79130;SDS011;72396;45.194;9.142;2024-02-23T06:26:33;10.65;;;7.03;;
79130;SDS011;72396;45.194;9.142;2024-02-23T06:28:59;10.32;;;6.65;;
79130;SDS011;72396;45.194;9.142;2024-02-23T06:31:25;10.82;;;6.45;;
79130;SDS011;72396;45.194;9.142;2024-02-23T06:33:50;12.25;;;7.90;;
79130;SDS011;72396;45.194;9.142;2024-02-23T06:36:16;10.00;;;6.72;;
79130;SDS011;72396;45.194;9.142;2024-02-23T06:38:43;11.88;;;6.95;;
79130;SDS011;72396;45.194;9.142;2024-02-23T06:41:10;10.52;;;7.10;;
79130;SDS011;72396;45.194;9.142;2024-02-23T06:43:36;11.07;;;6.72;;
79130;SDS011;72396;45.194;9.142;2024-02-23T06:46:08;11.20;;;7.18;;
79130;SDS011;72396;45.194;9.142;2024-02-23T06:48:34;11.75;;;7.53;;
79130;SDS011;72396;45.194;9.142;2024-02-23T06:51:00;12.07;;;7.90;;
79130;SDS011;72396;45.194;9.142;2024-02-23T06:53:26;13.13;;;7.07;;
79130;SDS011;72396;45.194;9.142;2024-02-23T06:55:51;15.10;;;7.82;;
79130;SDS011;72396;45.194;9.142;2024-02-23T06:58:16;12.13;;;7.85;;
79130;SDS011;72396;45.194;9.142;2024-02-23T07:00:43;11.23;;;7.20;;
79130;SDS011;72396;45.194;9.142;2024-02-23T07:03:09;12.57;;;7.63;;
79130;SDS011;72396;45.194;9.142;2024-02-23T07:05:34;12.00;;;7.65;;
79130;SDS011;72396;45.194;9.142;2024-02-23T07:08:03;10.80;;;6.60;;
79130;SDS011;72396;45.194;9.142;2024-02-23T07:10:28;11.90;;;7.10;;
79130;SDS011;72396;45.194;9.142;2024-02-23T07:12:54;11.80;;;7.20;;
79130;SDS011;72396;45.194;9.142;2024-02-23T07:15:21;11.10;;;7.35;;
79130;SDS011;72396;45.194;9.142;2024-02-23T07:17:46;11.68;;;6.45;;
79130;SDS011;72396;45.194;9.142;2024-02-23T07:20:12;11.98;;;7.13;;
79130;SDS011;72396;45.194;9.142;2024-02-23T07:22:38;10.23;;;7.03;;
79130;SDS011;72396;45.194;9.142;2024-02-23T07:25:04;10.20;;;6.68;;
79130;SDS011;72396;45.194;9.142;2024-02-23T07:27:30;9.43;;;6.13;;
79130;SDS011;72396;45.194;9.142;2024-02-23T07:29:56;10.98;;;6.78;;
79130;SDS011;72396;45.194;9.142;2024-02-23T07:32:22;10.82;;;6.82;;
79130;SDS011;72396;45.194;9.142;2024-02-23T07:34:47;10.30;;;6.22;;
79130;SDS011;72396;45.194;9.142;2024-02-23T07:37:13;11.60;;;6.47;;
79130;SDS011;72396;45.194;9.142;2024-02-23T07:39:38;9.98;;;6.35;;
79130;SDS011;72396;45.194;9.142;2024-02-23T07:42:04;10.48;;;6.28;;
79130;SDS011;72396;45.194;9.142;2024-02-23T07:44:31;9.45;;;6.25;;
79130;SDS011;72396;45.194;9.142;2024-02-23T07:46:56;10.88;;;6.30;;
79130;SDS011;72396;45.194;9.142;2024-02-23T07:49:23;11.85;;;6.68;;
79130;SDS011;72396;45.194;9.142;2024-02-23T07:51:49;9.38;;;5.85;;
79130;SDS011;72396;45.194;9.142;2024-02-23T07:54:15;9.05;;;5.70;;
79130;SDS011;72396;45.194;9.142;2024-02-23T07:56:40;9.65;;;5.75;;
79130;SDS011;72396;45.194;9.142;2024-02-23T07:59:05;8.60;;;5.22;;
79130;SDS011;72396;45.194;9.142;2024-02-23T08:01:31;7.95;;;4.95;;
79130;SDS011;72396;45.194;9.142;2024-02-23T08:03:56;8.35;;;4.97;;
79130;SDS011;72396;45.194;9.142;2024-02-23T08:06:22;7.30;;;5.25;;
79130;SDS011;72396;45.194;9.142;2024-02-23T08:08:48;7.82;;;4.80;;
79130;SDS011;72396;45.194;9.142;2024-02-23T08:11:13;8.77;;;5.07;;
79130;SDS011;72396;45.194;9.142;2024-02-23T08:13:38;8.40;;;4.57;;
79130;SDS011;72396;45.194;9.142;2024-02-23T08:16:04;9.32;;;4.70;;
79130;SDS011;72396;45.194;9.142;2024-02-23T08:18:31;7.45;;;4.55;;
79130;SDS011;72396;45.194;9.142;2024-02-23T08:20:56;7.20;;;4.70;;
79130;SDS011;72396;45.194;9.142;2024-02-23T08:23:23;6.70;;;4.30;;
79130;SDS011;72396;45.194;9.142;2024-02-23T08:25:49;7.13;;;4.32;;
79130;SDS011;72396;45.194;9.142;2024-02-23T08:28:15;6.70;;;4.13;;
79130;SDS011;72396;45.194;9.142;2024-02-23T08:30:41;6.55;;;3.97;;
79130;SDS011;72396;45.194;9.142;2024-02-23T08:33:06;5.53;;;3.67;;
79130;SDS011;72396;45.194;9.142;2024-02-23T08:35:34;5.68;;;3.53;;
79130;SDS011;72396;45.194;9.142;2024-02-23T08:38:00;6.30;;;4.20;;
79130;SDS011;72396;45.194;9.142;2024-02-23T08:40:26;5.50;;;3.58;;
79130;SDS011;72396;45.194;9.142;2024-02-23T08:42:51;10.05;;;3.63;;
79130;SDS011;72396;45.194;9.142;2024-02-23T08:45:17;5.90;;;3.72;;
79130;SDS011;72396;45.194;9.142;2024-02-23T08:47:42;6.32;;;3.47;;
79130;SDS011;72396;45.194;9.142;2024-02-23T08:50:08;6.53;;;3.88;;
79130;SDS011;72396;45.194;9.142;2024-02-23T08:52:34;6.82;;;3.55;;
79130;SDS011;72396;45.194;9.142;2024-02-23T08:54:59;5.95;;;3.83;;
79130;SDS011;72396;45.194;9.142;2024-02-23T08:57:25;5.90;;;3.33;;
79130;SDS011;72396;45.194;9.142;2024-02-23T08:59:52;6.40;;;3.75;;
79130;SDS011;72396;45.194;9.142;2024-02-23T09:02:18;8.93;;;4.20;;
79130;SDS011;72396;45.194;9.142;2024-02-23T09:04:44;6.70;;;4.05;;
79130;SDS011;72396;45.194;9.142;2024-02-23T09:07:10;8.05;;;4.60;;
79130;SDS011;72396;45.194;9.142;2024-02-23T09:09:36;8.07;;;4.43;;
79130;SDS011;72396;45.194;9.142;2024-02-23T09:12:01;9.32;;;4.97;;
79130;SDS011;72396;45.194;9.142;2024-02-23T09:14:27;8.95;;;5.07;;
79130;SDS011;72396;45.194;9.142;2024-02-23T09:16:52;10.68;;;4.75;;
79130;SDS011;72396;45.194;9.142;2024-02-23T09:19:18;9.15;;;5.18;;
79130;SDS011;72396;45.194;9.142;2024-02-23T09:21:44;7.13;;;4.35;;
79130;SDS011;72396;45.194;9.142;2024-02-23T09:24:10;9.43;;;4.47;;
79130;SDS011;72396;45.194;9.142;2024-02-23T09:26:35;8.23;;;4.57;;
79130;SDS011;72396;45.194;9.142;2024-02-23T09:29:00;8.65;;;5.28;;
79130;SDS011;72396;45.194;9.142;2024-02-23T09:31:26;8.80;;;4.65;;
79130;SDS011;72396;45.194;9.142;2024-02-23T09:33:53;9.25;;;4.40;;
79130;SDS011;72396;45.194;9.142;2024-02-23T09:36:19;6.95;;;4.30;;
79130;SDS011;72396;45.194;9.142;2024-02-23T09:38:44;7.95;;;4.60;;
79130;SDS011;72396;45.194;9.142;2024-02-23T09:41:31;7.70;;;4.70;;
79130;SDS011;72396;45.194;9.142;2024-02-23T09:43:57;6.97;;;4.30;;
79130;SDS011;72396;45.194;9.142;2024-02-23T09:46:24;7.22;;;4.70;;
79130;SDS011;72396;45.194;9.142;2024-02-23T09:48:50;7.70;;;4.72;;
79130;SDS011;72396;45.194;9.142;2024-02-23T09:51:16;10.55;;;5.95;;
79130;SDS011;72396;45.194;9.142;2024-02-23T09:53:42;9.05;;;5.40;;
79130;SDS011;72396;45.194;9.142;2024-02-23T09:56:08;10.50;;;6.28;;
79130;SDS011;72396;45.194;9.142;2024-02-23T09:58:35;11.13;;;6.55;;
79130;SDS011;72396;45.194;9.142;2024-02-23T10:01:02;10.27;;;5.93;;
79130;SDS011;72396;45.194;9.142;2024-02-23T10:03:29;9.75;;;5.80;;
79130;SDS011;72396;45.194;9.142;2024-02-23T10:05:58;8.02;;;4.90;;
79130;SDS011;72396;45.194;9.142;2024-02-23T10:08:24;6.20;;;3.58;;
79130;SDS011;72396;45.194;9.142;2024-02-23T10:10:50;5.70;;;3.13;;
79130;SDS011;72396;45.194;9.142;2024-02-23T10:13:19;4.28;;;2.92;;
79130;SDS011;72396;45.194;9.142;2024-02-23T10:15:49;4.63;;;2.90;;
79130;SDS011;72396;45.194;9.142;2024-02-23T10:18:15;3.85;;;2.60;;
79130;SDS011;72396;45.194;9.142;2024-02-23T10:20:40;3.83;;;2.50;;
79130;SDS011;72396;45.194;9.142;2024-02-23T10:23:07;4.93;;;2.55;;
79130;SDS011;72396;45.194;9.142;2024-02-23T10:25:34;4.07;;;2.60;;
79130;SDS011;72396;45.194;9.142;2024-02-23T10:28:03;5.00;;;2.42;;
79130;SDS011;72396;45.194;9.142;2024-02-23T10:30:30;4.55;;;2.78;;
79130;SDS011;72396;45.194;9.142;2024-02-23T10:32:56;3.95;;;2.58;;
79130;SDS011;72396;45.194;9.142;2024-02-23T10:35:23;4.55;;;2.58;;
79130;SDS011;72396;45.194;9.142;2024-02-23T10:37:49;4.03;;;2.20;;
79130;SDS011;72396;45.194;9.142;2024-02-23T10:40:16;3.67;;;2.40;;
79130;SDS011;72396;45.194;9.142;2024-02-23T10:42:45;3.42;;;2.10;;
79130;SDS011;72396;45.194;9.142;2024-02-23T10:45:17;4.43;;;2.50;;
79130;SDS011;72396;45.194;9.142;2024-02-23T10:47:43;4.10;;;2.38;;
79130;SDS011;72396;45.194;9.142;2024-02-23T10:50:10;4.95;;;2.30;;
79130;SDS011;72396;45.194;9.142;2024-02-23T10:52:40;5.65;;;2.20;;
79130;SDS011;72396;45.194;9.142;2024-02-23T10:55:08;3.72;;;1.90;;
79130;SDS011;72396;45.194;9.142;2024-02-23T10:57:34;3.75;;;1.85;;
79130;SDS011;72396;45.194;9.142;2024-02-23T11:00:00;5.20;;;2.20;;
79130;SDS011;72396;45.194;9.142;2024-02-23T11:02:27;4.25;;;2.15;;
79130;SDS011;72396;45.194;9.142;2024-02-23T11:04:56;4.10;;;2.50;;
79130;SDS011;72396;45.194;9.142;2024-02-23T11:07:23;4.05;;;2.30;;
79130;SDS011;72396;45.194;9.142;2024-02-23T11:09:53;3.42;;;2.10;;
79130;SDS011;72396;45.194;9.142;2024-02-23T11:12:23;5.10;;;2.60;;
79130;SDS011;72396;45.194;9.142;2024-02-23T11:14:57;4.72;;;2.40;;
79130;SDS011;72396;45.194;9.142;2024-02-23T11:17:25;4.55;;;2.40;;
79130;SDS011;72396;45.194;9.142;2024-02-23T11:19:53;3.60;;;2.47;;
79130;SDS011;72396;45.194;9.142;2024-02-23T11:22:26;4.75;;;2.60;;
79130;SDS011;72396;45.194;9.142;2024-02-23T11:24:52;4.47;;;2.60;;
79130;SDS011;72396;45.194;9.142;2024-02-23T11:27:18;4.40;;;2.60;;
79130;SDS011;72396;45.194;9.142;2024-02-23T11:29:46;5.07;;;2.67;;
79130;SDS011;72396;45.194;9.142;2024-02-23T11:34:41;3.80;;;2.42;;
79130;SDS011;72396;45.194;9.142;2024-02-23T11:37:10;4.65;;;2.53;;
79130;SDS011;72396;45.194;9.142;2024-02-23T11:39:39;4.88;;;2.67;;
79130;SDS011;72396;45.194;9.142;2024-02-23T11:42:05;4.40;;;2.75;;
79130;SDS011;72396;45.194;9.142;2024-02-23T11:44:31;5.97;;;3.00;;
79130;SDS011;72396;45.194;9.142;2024-02-23T11:46:58;5.20;;;3.08;;
79130;SDS011;72396;45.194;9.142;2024-02-23T11:49:27;5.07;;;3.03;;
79130;SDS011;72396;45.194;9.142;2024-02-23T11:51:55;5.53;;;3.58;;
79130;SDS011;72396;45.194;9.142;2024-02-23T11:54:21;4.95;;;3.25;;
79130;SDS011;72396;45.194;9.142;2024-02-23T11:56:48;4.88;;;3.35;;
79130;SDS011;72396;45.194;9.142;2024-02-23T11:59:14;5.43;;;3.28;;
79130;SDS011;72396;45.194;9.142;2024-02-23T12:01:40;5.35;;;3.80;;
79130;SDS011;72396;45.194;9.142;2024-02-23T12:04:06;5.72;;;3.40;;
79130;SDS011;72396;45.194;9.142;2024-02-23T12:06:32;5.28;;;3.45;;
79130;SDS011;72396;45.194;9.142;2024-02-23T12:08:59;4.85;;;3.33;;
79130;SDS011;72396;45.194;9.142;2024-02-23T12:11:25;6.25;;;3.50;;
79130;SDS011;72396;45.194;9.142;2024-02-23T12:13:50;6.53;;;3.70;;
79130;SDS011;72396;45.194;9.142;2024-02-23T12:16:16;6.32;;;3.72;;
79130;SDS011;72396;45.194;9.142;2024-02-23T12:18:41;4.53;;;3.50;;
79130;SDS011;72396;45.194;9.142;2024-02-23T12:21:08;5.65;;;3.95;;
79130;SDS011;72396;45.194;9.142;2024-02-23T12:23:40;6.22;;;3.85;;
79130;SDS011;72396;45.194;9.142;2024-02-23T12:26:15;6.93;;;4.72;;
79130;SDS011;72396;45.194;9.142;2024-02-23T12:28:42;6.28;;;3.95;;
79130;SDS011;72396;45.194;9.142;2024-02-23T12:31:08;6.63;;;3.92;;
79130;SDS011;72396;45.194;9.142;2024-02-23T12:33:34;8.80;;;4.82;;
79130;SDS011;72396;45.194;9.142;2024-02-23T12:36:01;8.35;;;4.10;;
79130;SDS011;72396;45.194;9.142;2024-02-23T12:38:28;6.43;;;3.95;;
79130;SDS011;72396;45.194;9.142;2024-02-23T12:40:53;7.05;;;3.70;;
79130;SDS011;72396;45.194;9.142;2024-02-23T12:43:19;6.30;;;3.42;;
79130;SDS011;72396;45.194;9.142;2024-02-23T12:45:49;6.30;;;4.10;;
79130;SDS011;72396;45.194;9.142;2024-02-23T12:48:19;5.65;;;3.72;;
79130;SDS011;72396;45.194;9.142;2024-02-23T12:50:45;5.18;;;3.50;;
79130;SDS011;72396;45.194;9.142;2024-02-23T12:53:13;6.32;;;3.80;;
79130;SDS011;72396;45.194;9.142;2024-02-23T12:55:57;6.57;;;3.83;;
79130;SDS011;72396;45.194;9.142;2024-02-23T12:58:22;7.32;;;3.92;;
79130;SDS011;72396;45.194;9.142;2024-02-23T13:00:48;5.85;;;3.85;;
79130;SDS011;72396;45.194;9.142;2024-02-23T13:03:13;6.47;;;3.92;;
79130;SDS011;72396;45.194;9.142;2024-02-23T13:05:38;5.22;;;3.67;;
79130;SDS011;72396;45.194;9.142;2024-02-23T13:08:04;5.10;;;3.80;;
79130;SDS011;72396;45.194;9.142;2024-02-23T13:10:30;5.35;;;3.28;;
79130;SDS011;72396;45.194;9.142;2024-02-23T13:12:56;5.75;;;3.55;;
79130;SDS011;72396;45.194;9.142;2024-02-23T13:15:21;5.82;;;3.70;;
79130;SDS011;72396;45.194;9.142;2024-02-23T13:17:46;5.90;;;3.60;;
79130;SDS011;72396;45.194;9.142;2024-02-23T13:20:12;5.85;;;3.90;;
79130;SDS011;72396;45.194;9.142;2024-02-23T13:22:37;5.35;;;3.88;;
79130;SDS011;72396;45.194;9.142;2024-02-23T13:25:03;7.15;;;4.03;;
79130;SDS011;72396;45.194;9.142;2024-02-23T13:27:29;9.73;;;3.60;;
79130;SDS011;72396;45.194;9.142;2024-02-23T13:29:55;6.47;;;3.65;;
79130;SDS011;72396;45.194;9.142;2024-02-23T13:32:20;5.88;;;3.15;;
79130;SDS011;72396;45.194;9.142;2024-02-23T13:34:45;4.65;;;3.15;;
79130;SDS011;72396;45.194;9.142;2024-02-23T13:37:11;7.47;;;3.20;;
79130;SDS011;72396;45.194;9.142;2024-02-23T13:39:37;5.38;;;3.40;;
79130;SDS011;72396;45.194;9.142;2024-02-23T13:42:02;4.20;;;2.80;;
79130;SDS011;72396;45.194;9.142;2024-02-23T13:44:30;5.03;;;3.00;;
79130;SDS011;72396;45.194;9.142;2024-02-23T13:46:56;5.72;;;3.13;;
79130;SDS011;72396;45.194;9.142;2024-02-23T13:49:21;4.70;;;3.20;;
79130;SDS011;72396;45.194;9.142;2024-02-23T13:51:47;5.00;;;3.47;;
79130;SDS011;72396;45.194;9.142;2024-02-23T13:54:12;5.47;;;3.20;;
79130;SDS011;72396;45.194;9.142;2024-02-23T13:56:37;4.43;;;2.53;;
79130;SDS011;72396;45.194;9.142;2024-02-23T13:59:03;4.32;;;2.47;;
79130;SDS011;72396;45.194;9.142;2024-02-23T14:01:29;6.32;;;2.85;;
79130;SDS011;72396;45.194;9.142;2024-02-23T14:03:54;4.30;;;2.63;;
79130;SDS011;72396;45.194;9.142;2024-02-23T14:06:19;5.38;;;3.40;;
79130;SDS011;72396;45.194;9.142;2024-02-23T14:08:45;4.93;;;2.67;;
79130;SDS011;72396;45.194;9.142;2024-02-23T14:11:12;4.25;;;2.60;;
79130;SDS011;72396;45.194;9.142;2024-02-23T14:13:37;6.43;;;2.65;;
79130;SDS011;72396;45.194;9.142;2024-02-23T14:16:03;4.18;;;2.53;;
79130;SDS011;72396;45.194;9.142;2024-02-23T14:18:30;5.25;;;2.47;;
79130;SDS011;72396;45.194;9.142;2024-02-23T14:20:57;3.83;;;2.25;;
79130;SDS011;72396;45.194;9.142;2024-02-23T14:23:22;5.40;;;2.75;;
79130;SDS011;72396;45.194;9.142;2024-02-23T14:25:48;4.80;;;2.92;;
79130;SDS011;72396;45.194;9.142;2024-02-23T14:28:13;3.90;;;2.58;;
79130;SDS011;72396;45.194;9.142;2024-02-23T14:30:39;3.90;;;2.47;;
79130;SDS011;72396;45.194;9.142;2024-02-23T14:33:05;4.65;;;2.80;;
79130;SDS011;72396;45.194;9.142;2024-02-23T14:35:31;3.90;;;2.25;;